createdAt,value
2019-06-19T00:02:07.527Z,100.00
2019-06-19T00:04:36.398Z,100.00
2019-06-19T00:07:05.083Z,100.00
2019-06-19T00:09:33.774Z,100.00
2019-06-19T00:12:03.248Z,100.00
2019-06-19T00:14:33.223Z,100.00
2019-06-19T00:17:02.729Z,100.00
2019-06-19T00:19:33.366Z,100.00
2019-06-19T00:22:04.218Z,100.00
2019-06-19T00:24:32.623Z,100.00
2019-06-19T00:27:01.543Z,100.00
2019-06-19T00:29:40.108Z,100.00
2019-06-19T00:32:00.795Z,100.00
2019-06-19T00:34:30.723Z,100.00
2019-06-19T00:37:01.238Z,100.00
2019-06-19T00:39:31.547Z,100.00
2019-06-19T00:42:01.720Z,100.00
2019-06-19T00:44:30.835Z,100.00
2019-06-19T00:47:00.972Z,100.00
2019-06-19T00:49:31.364Z,100.00
2019-06-19T00:52:01.072Z,100.00
2019-06-19T00:54:31.736Z,100.00
2019-06-19T00:57:02.366Z,100.00
2019-06-19T00:59:31.260Z,100.00
2019-06-19T01:02:00.978Z,100.00
2019-06-19T01:04:31.715Z,100.00
2019-06-19T01:07:01.715Z,100.00
2019-06-19T01:09:31.304Z,100.00
2019-06-19T01:12:01.266Z,100.00
2019-06-19T01:14:32.632Z,100.00
2019-06-19T01:17:02.568Z,100.00
2019-06-19T01:19:31.713Z,100.00
2019-06-19T01:22:01.007Z,100.00
2019-06-19T01:24:31.627Z,100.00
2019-06-19T01:27:01.730Z,100.00
2019-06-19T01:29:31.513Z,100.00
2019-06-19T01:32:01.145Z,100.00
2019-06-19T01:34:32.071Z,100.00
2019-06-19T01:37:01.232Z,100.00
2019-06-19T01:39:31.516Z,100.00
2019-06-19T01:42:01.102Z,100.00
2019-06-19T01:44:30.945Z,100.00
2019-06-19T01:47:02.028Z,100.00
2019-06-19T01:49:30.732Z,100.00
2019-06-19T01:52:01.646Z,100.00
2019-06-19T01:54:32.214Z,100.00
2019-06-19T01:57:00.713Z,100.00
2019-06-19T01:59:31.209Z,100.00
2019-06-19T02:02:01.087Z,100.00
2019-06-19T02:04:31.486Z,100.00
2019-06-19T02:07:01.042Z,100.00
2019-06-19T02:09:31.686Z,100.00
2019-06-19T02:12:01.319Z,100.00
2019-06-19T02:14:31.631Z,100.00
2019-06-19T02:17:01.152Z,100.00
2019-06-19T02:19:37.395Z,100.00
2019-06-19T02:22:01.431Z,100.00
2019-06-19T02:24:31.048Z,100.00
2019-06-19T02:27:01.019Z,100.00
2019-06-19T02:29:31.259Z,100.00
2019-06-19T02:32:02.242Z,100.00
2019-06-19T02:34:32.151Z,100.00
2019-06-19T02:37:02.218Z,100.00
2019-06-19T02:39:31.654Z,100.00
2019-06-19T02:42:00.553Z,100.00
2019-06-19T02:44:29.250Z,100.00
2019-06-19T02:46:58.279Z,100.00
2019-06-19T02:49:27.029Z,100.00
2019-06-19T02:51:55.803Z,100.00
2019-06-19T02:54:24.497Z,100.00
2019-06-19T02:56:53.335Z,100.00
2019-06-19T02:59:22.284Z,100.00
2019-06-19T03:01:50.983Z,100.00
2019-06-19T03:04:19.977Z,100.00
2019-06-19T03:06:48.973Z,100.00
2019-06-19T03:09:17.657Z,100.00
2019-06-19T03:11:46.433Z,100.00
2019-06-19T03:14:15.115Z,100.00
2019-06-19T03:16:43.911Z,100.00
2019-06-19T03:19:12.597Z,100.00
2019-06-19T03:21:41.279Z,100.00
2019-06-19T03:24:10.077Z,100.00
2019-06-19T03:26:38.768Z,100.00
2019-06-19T03:29:07.439Z,100.00
2019-06-19T03:31:37.122Z,100.00
2019-06-19T03:34:06.070Z,100.00
2019-06-19T03:36:34.826Z,100.00
2019-06-19T03:39:04.533Z,100.00
2019-06-19T03:41:33.241Z,100.00
2019-06-19T03:44:01.912Z,100.00
2019-06-19T03:46:31.109Z,100.00
2019-06-19T03:48:59.902Z,100.00
2019-06-19T03:51:29.242Z,100.00
2019-06-19T03:53:57.882Z,100.00
2019-06-19T03:56:30.083Z,100.00
2019-06-19T03:58:58.876Z,100.00
2019-06-19T04:01:27.834Z,100.00
2019-06-19T04:03:56.624Z,100.00
2019-06-19T04:06:28.299Z,100.00
2019-06-19T04:08:57.097Z,100.00
2019-06-19T04:11:25.696Z,100.00
2019-06-19T04:13:54.448Z,100.00
2019-06-19T04:16:23.130Z,100.00
2019-06-19T04:18:51.814Z,100.00
2019-06-19T04:21:20.584Z,100.00
2019-06-19T04:23:50.995Z,100.00
2019-06-19T04:26:19.829Z,100.00
2019-06-19T04:28:50.227Z,100.00
2019-06-19T04:31:18.938Z,100.00
2019-06-19T04:33:47.828Z,100.00
2019-06-19T04:36:19.817Z,100.00
2019-06-19T04:38:48.587Z,100.00
2019-06-19T04:41:18.449Z,100.00
2019-06-19T04:43:47.134Z,100.00
2019-06-19T04:46:17.463Z,100.00
2019-06-19T04:48:47.448Z,100.00
2019-06-19T04:51:16.685Z,100.00
2019-06-19T04:53:45.561Z,100.00
2019-06-19T04:56:14.815Z,100.00
2019-06-19T04:58:43.833Z,100.00
2019-06-19T05:01:14.773Z,100.00
2019-06-19T05:03:44.244Z,100.00
2019-06-19T05:06:13.166Z,100.00
2019-06-19T05:08:49.493Z,100.00
2019-06-19T05:11:19.642Z,100.00
2019-06-19T05:13:48.406Z,100.00
2019-06-19T05:16:17.457Z,100.00
2019-06-19T05:18:46.145Z,100.00
2019-06-19T05:21:14.807Z,100.00
2019-06-19T05:23:43.582Z,100.00
2019-06-19T05:26:12.776Z,100.00
2019-06-19T05:28:41.390Z,100.00
2019-06-19T05:31:10.024Z,100.00
2019-06-19T05:33:38.737Z,100.00
2019-06-19T05:36:07.438Z,100.00
2019-06-19T05:38:36.055Z,100.00
2019-06-19T05:41:05.747Z,100.00
2019-06-19T05:43:34.749Z,100.00
2019-06-19T05:46:03.608Z,100.00
2019-06-19T05:48:32.279Z,100.00
2019-06-19T05:51:00.944Z,100.00
2019-06-19T05:53:29.713Z,100.00
2019-06-19T05:56:19.250Z,100.00
2019-06-19T05:58:48.492Z,100.00
2019-06-19T06:01:18.934Z,100.00
2019-06-19T06:03:51.765Z,100.00
2019-06-19T06:06:20.743Z,100.00
2019-06-19T06:08:49.410Z,100.00
2019-06-19T06:11:19.047Z,100.00
2019-06-19T06:13:48.948Z,100.00
2019-06-19T06:16:17.844Z,100.00
2019-06-19T06:18:46.670Z,100.00
2019-06-19T06:21:33.126Z,100.00
2019-06-19T06:24:01.814Z,100.00
2019-06-19T06:26:30.755Z,100.00
2019-06-19T06:28:59.491Z,100.00
2019-06-19T06:31:28.185Z,100.00
2019-06-19T06:33:56.864Z,100.00
2019-06-19T06:36:25.661Z,100.00
2019-06-19T06:38:54.357Z,100.00
2019-06-19T06:41:23.340Z,100.00
2019-06-19T06:43:52.142Z,100.00
2019-06-19T06:46:20.913Z,100.00
2019-06-19T06:48:49.710Z,100.00
2019-06-19T06:51:18.398Z,100.00
2019-06-19T06:53:47.394Z,100.00
2019-06-19T06:56:16.296Z,100.00
2019-06-19T06:58:45.070Z,100.00
2019-06-19T07:01:13.755Z,100.00
2019-06-19T07:03:42.433Z,100.00
2019-06-19T07:06:11.332Z,100.00
2019-06-19T07:08:40.120Z,100.00
2019-06-19T07:11:09.556Z,100.00
2019-06-19T07:13:38.231Z,100.00
2019-06-19T07:16:06.993Z,100.00
2019-06-19T07:18:36.402Z,100.00
2019-06-19T07:21:05.186Z,100.00
2019-06-19T07:23:33.883Z,100.00
2019-06-19T07:26:03.197Z,100.00
2019-06-19T07:28:31.964Z,100.00
2019-06-19T07:31:00.671Z,100.00
2019-06-19T07:33:40.914Z,100.00
2019-06-19T07:35:59.764Z,100.00
2019-06-19T07:38:28.453Z,100.00
2019-06-19T07:40:57.247Z,100.00
2019-06-19T07:43:25.933Z,100.00
2019-06-19T07:45:54.723Z,100.00
2019-06-19T07:48:23.397Z,95.28
2019-06-19T07:50:52.084Z,100.00
2019-06-19T07:53:20.736Z,100.00
2019-06-19T07:55:49.431Z,100.00
2019-06-19T07:58:18.048Z,100.00
2019-06-19T08:00:46.764Z,100.00
2019-06-19T08:03:15.492Z,100.00
2019-06-19T08:05:44.430Z,100.00
2019-06-19T08:08:13.079Z,100.00
2019-06-19T08:10:41.773Z,98.07
2019-06-19T08:13:13.415Z,99.69
2019-06-19T08:15:40.812Z,100.00
2019-06-19T08:18:09.440Z,100.00
2019-06-19T08:20:38.070Z,100.00
2019-06-19T08:23:06.755Z,100.00
2019-06-19T08:25:35.997Z,99.83
2019-06-19T08:28:06.249Z,95.38
2019-06-19T08:30:36.025Z,91.80
2019-06-19T08:33:04.727Z,99.75
2019-06-19T08:35:33.360Z,88.32
2019-06-19T08:38:02.052Z,89.55
2019-06-19T08:40:30.678Z,89.43
2019-06-19T08:42:59.376Z,89.01
2019-06-19T08:45:28.005Z,86.78
2019-06-19T08:47:56.612Z,81.99
2019-06-19T08:50:25.293Z,83.26
2019-06-19T08:52:53.981Z,85.68
2019-06-19T08:55:22.686Z,82.58
2019-06-19T08:57:51.285Z,85.20
2019-06-19T09:00:22.936Z,81.59
2019-06-19T09:02:51.606Z,86.82
2019-06-19T09:05:20.270Z,77.51
2019-06-19T09:07:49.481Z,74.22
2019-06-19T09:10:43.520Z,72.08
2019-06-19T09:13:29.866Z,74.67
2019-06-19T09:15:58.543Z,73.40
2019-06-19T09:18:27.345Z,63.30
2019-06-19T09:20:56.000Z,67.46
2019-06-19T09:23:24.669Z,72.51
2019-06-19T09:25:53.394Z,68.67
2019-06-19T09:28:22.025Z,68.26
2019-06-19T09:30:50.735Z,66.34
2019-06-19T09:33:19.543Z,65.02
2019-06-19T09:35:48.173Z,59.43
2019-06-19T09:38:16.866Z,60.98
2019-06-19T09:40:45.500Z,63.65
2019-06-19T09:43:14.193Z,63.99
2019-06-19T09:45:43.129Z,66.94
2019-06-19T09:48:11.875Z,66.13
2019-06-19T09:50:40.526Z,62.94
2019-06-19T09:53:09.225Z,61.05
2019-06-19T09:55:37.853Z,62.78
2019-06-19T09:58:06.480Z,62.14
2019-06-19T10:00:36.491Z,60.73
2019-06-19T10:03:05.604Z,53.74
2019-06-19T10:05:34.977Z,61.12
2019-06-19T10:08:03.625Z,60.92
2019-06-19T10:10:32.721Z,61.46
2019-06-19T10:13:01.383Z,52.34
2019-06-19T10:15:32.538Z,48.29
2019-06-19T10:18:01.167Z,48.93
2019-06-19T10:20:29.879Z,51.51
2019-06-19T10:22:58.552Z,50.09
2019-06-19T10:25:27.198Z,35.04
2019-06-19T10:27:55.947Z,38.03
2019-06-19T10:30:33.569Z,39.56
2019-06-19T10:33:02.183Z,39.56
2019-06-19T10:35:30.992Z,40.29
2019-06-19T10:37:59.671Z,40.42
2019-06-19T10:40:28.524Z,39.30
2019-06-19T10:42:57.204Z,38.93
2019-06-19T10:45:25.835Z,45.80
2019-06-19T10:47:54.590Z,41.96
2019-06-19T10:50:23.372Z,40.79
2019-06-19T10:52:52.162Z,41.34
2019-06-19T10:55:20.845Z,42.40
2019-06-19T10:57:49.672Z,40.94
2019-06-19T11:00:18.527Z,38.64
2019-06-19T11:02:47.212Z,39.73
2019-06-19T11:05:16.123Z,40.41
2019-06-19T11:07:46.341Z,44.42
2019-06-19T11:10:15.936Z,46.10
2019-06-19T11:12:44.728Z,55.98
2019-06-19T11:15:13.849Z,56.74
2019-06-19T11:17:42.631Z,56.56
2019-06-19T11:20:12.456Z,58.19
2019-06-19T11:22:41.152Z,57.32
2019-06-19T11:25:09.908Z,51.40
2019-06-19T11:27:38.581Z,51.36
2019-06-19T11:30:11.280Z,55.21
2019-06-19T11:32:41.232Z,55.22
2019-06-19T11:35:10.723Z,57.33
2019-06-19T11:37:39.578Z,55.60
2019-06-19T11:40:09.192Z,49.00
2019-06-19T11:42:37.844Z,58.49
2019-06-19T11:45:07.414Z,58.15
2019-06-19T11:47:36.170Z,50.59
2019-06-19T11:50:06.625Z,51.04
2019-06-19T11:52:35.386Z,55.83
2019-06-19T11:55:05.920Z,58.68
2019-06-19T11:57:34.706Z,68.03
2019-06-19T12:00:06.052Z,70.14
2019-06-19T12:02:36.054Z,64.43
2019-06-19T12:05:06.056Z,66.83
2019-06-19T12:07:34.903Z,75.18
2019-06-19T12:10:05.610Z,89.42
2019-06-19T12:12:34.525Z,100.00
2019-06-19T12:15:03.356Z,100.00
2019-06-19T12:17:32.391Z,100.00
2019-06-19T12:20:01.082Z,100.00
2019-06-19T12:22:29.764Z,100.00
2019-06-19T12:24:58.545Z,100.00
2019-06-19T12:27:27.227Z,100.00
2019-06-19T12:30:05.769Z,100.00
2019-06-19T12:32:26.268Z,100.00
2019-06-19T12:34:56.710Z,100.00
2019-06-19T12:37:25.522Z,100.00
2019-06-19T12:39:54.329Z,100.00
2019-06-19T12:42:23.003Z,100.00
2019-06-19T12:44:51.682Z,100.00
2019-06-19T12:47:20.937Z,100.00
2019-06-19T12:49:49.611Z,100.00
2019-06-19T12:52:18.401Z,100.00
2019-06-19T12:55:00.108Z,100.00
2019-06-19T12:57:17.832Z,100.00
2019-06-19T12:59:46.517Z,100.00
2019-06-19T13:02:15.402Z,100.00
2019-06-19T13:04:44.095Z,100.00
2019-06-19T13:07:12.822Z,100.00
2019-06-19T13:09:41.633Z,100.00
2019-06-19T13:12:11.340Z,100.00
2019-06-19T13:14:40.136Z,100.00
2019-06-19T13:17:10.302Z,100.00
2019-06-19T13:19:39.012Z,100.00
2019-06-19T13:22:07.771Z,100.00
2019-06-19T13:24:36.472Z,100.00
2019-06-19T13:27:05.650Z,100.00
2019-06-19T13:29:34.463Z,100.00
2019-06-19T13:32:03.335Z,100.00
2019-06-19T13:34:32.249Z,100.00
2019-06-19T13:37:04.146Z,100.00
2019-06-19T13:39:37.267Z,100.00
2019-06-19T13:42:08.623Z,100.00
2019-06-19T13:44:37.305Z,100.00
2019-06-19T13:47:06.098Z,100.00
2019-06-19T13:49:36.425Z,100.00
2019-06-19T13:52:05.214Z,100.00
2019-06-19T13:54:34.029Z,100.00
2019-06-19T13:57:02.693Z,100.00
2019-06-19T13:59:31.509Z,100.00
2019-06-19T14:02:00.411Z,100.00
2019-06-19T14:04:29.111Z,100.00
2019-06-19T14:06:57.771Z,100.00
2019-06-19T14:09:26.545Z,100.00
2019-06-19T14:11:55.190Z,100.00
2019-06-19T14:14:24.044Z,100.00
2019-06-19T14:16:54.105Z,100.00
2019-06-19T14:19:22.819Z,100.00
2019-06-19T14:21:51.538Z,100.00
2019-06-19T14:24:20.269Z,100.00
2019-06-19T14:26:49.010Z,100.00
2019-06-19T14:29:17.632Z,100.00
2019-06-19T14:31:46.250Z,100.00
2019-06-19T14:34:14.970Z,100.00
2019-06-19T14:36:43.620Z,100.00
2019-06-19T14:39:12.447Z,100.00
2019-06-19T14:41:41.158Z,100.00
2019-06-19T14:44:10.008Z,100.00
2019-06-19T14:46:42.533Z,100.00
2019-06-19T14:49:09.407Z,100.00
2019-06-19T14:51:39.471Z,100.00
2019-06-19T14:54:08.216Z,100.00
2019-06-19T14:56:38.431Z,100.00
2019-06-19T14:59:07.212Z,100.00
2019-06-19T15:01:37.668Z,100.00
2019-06-19T15:04:07.995Z,100.00
2019-06-19T15:06:36.941Z,100.00
2019-06-19T15:09:09.107Z,100.00
2019-06-19T15:11:38.328Z,100.00
2019-06-19T15:14:07.116Z,100.00
2019-06-19T15:16:35.950Z,100.00
2019-06-19T15:19:04.903Z,100.00
2019-06-19T15:21:33.615Z,100.00
2019-06-19T15:24:02.378Z,100.00
2019-06-19T15:26:31.175Z,100.00
2019-06-19T15:28:59.849Z,100.00
2019-06-19T15:31:28.646Z,100.00
2019-06-19T15:33:57.436Z,100.00
2019-06-19T15:36:27.445Z,100.00
2019-06-19T15:38:56.137Z,100.00
2019-06-19T15:41:24.918Z,100.00
2019-06-19T15:43:53.812Z,100.00
2019-06-19T15:46:22.786Z,100.00
2019-06-19T15:48:51.490Z,100.00
2019-06-19T15:51:20.145Z,100.00
2019-06-19T15:53:48.867Z,100.00
2019-06-19T15:56:17.657Z,100.00
2019-06-19T15:58:46.343Z,100.00
2019-06-19T16:01:15.153Z,100.00
2019-06-19T16:03:43.938Z,100.00
2019-06-19T16:06:15.876Z,100.00
2019-06-19T16:08:43.034Z,100.00
2019-06-19T16:11:12.035Z,100.00
2019-06-19T16:13:42.356Z,100.00
2019-06-19T16:16:11.036Z,100.00
2019-06-19T16:18:39.825Z,100.00
2019-06-19T16:21:08.519Z,100.00
2019-06-19T16:23:37.300Z,100.00
2019-06-19T16:26:05.985Z,100.00
2019-06-19T16:28:36.213Z,100.00
2019-06-19T16:31:04.930Z,100.00
2019-06-19T16:33:33.654Z,100.00
2019-06-19T16:36:02.486Z,100.00
2019-06-19T16:38:45.715Z,100.00
2019-06-19T16:41:01.692Z,100.00
2019-06-19T16:43:30.482Z,100.00
2019-06-19T16:45:59.268Z,100.00
2019-06-19T16:48:27.953Z,100.00
2019-06-19T16:50:56.750Z,100.00
2019-06-19T16:53:25.430Z,100.00
2019-06-19T16:55:54.142Z,100.00
2019-06-19T16:58:22.873Z,100.00
2019-06-19T17:00:53.224Z,100.00
2019-06-19T17:03:21.867Z,100.00
2019-06-19T17:05:50.490Z,100.00
2019-06-19T17:08:19.212Z,100.00
2019-06-19T17:10:48.288Z,100.00
2019-06-19T17:13:17.223Z,100.00
2019-06-19T17:15:45.940Z,100.00
2019-06-19T17:18:14.598Z,100.00
2019-06-19T17:20:43.371Z,100.00
2019-06-19T17:23:12.062Z,100.00
2019-06-19T17:25:47.585Z,100.00
2019-06-19T17:28:16.343Z,100.00
2019-06-19T17:30:44.953Z,100.00
2019-06-19T17:33:13.737Z,100.00
2019-06-19T17:35:42.435Z,100.00
2019-06-19T17:38:11.223Z,100.00
2019-06-19T17:40:39.900Z,100.00
2019-06-19T17:43:10.483Z,100.00
2019-06-19T17:45:39.222Z,100.00
2019-06-19T17:48:09.699Z,100.00
2019-06-19T17:50:38.433Z,100.00
2019-06-19T17:53:07.252Z,100.00
2019-06-19T17:55:36.010Z,100.00
2019-06-19T17:58:04.708Z,100.00
2019-06-19T18:00:34.414Z,100.00
2019-06-19T18:03:03.104Z,100.00
2019-06-19T18:05:31.903Z,100.00
2019-06-19T18:08:15.943Z,100.00
2019-06-19T18:17:07.909Z,100.00
2019-06-19T18:19:54.818Z,100.00
2019-06-19T18:22:36.912Z,100.00
2019-06-19T18:25:07.408Z,100.00
2019-06-19T18:27:36.140Z,100.00
2019-06-19T18:30:09.558Z,100.00
2019-06-19T18:32:38.320Z,100.00
2019-06-19T18:35:07.566Z,100.00
2019-06-19T18:37:36.314Z,100.00
2019-06-19T18:40:10.730Z,100.00
2019-06-19T18:42:39.733Z,100.00
2019-06-19T18:45:08.822Z,100.00
2019-06-19T18:47:39.248Z,100.00
2019-06-19T18:50:09.776Z,100.00
2019-06-19T18:52:38.582Z,100.00
2019-06-19T18:55:08.593Z,100.00
2019-06-19T18:57:38.095Z,100.00
2019-06-19T19:00:11.216Z,100.00
2019-06-19T19:02:39.967Z,100.00
2019-06-19T19:05:10.500Z,100.00
2019-06-19T19:07:39.288Z,100.00
2019-06-19T19:10:13.169Z,100.00
2019-06-19T19:12:39.016Z,100.00
2019-06-19T19:15:08.544Z,100.00
2019-06-19T19:17:37.318Z,100.00
2019-06-19T19:20:07.329Z,100.00
2019-06-19T19:22:36.018Z,100.00
2019-06-19T19:25:07.601Z,100.00
2019-06-19T19:27:38.208Z,100.00
2019-06-19T19:30:12.603Z,100.00
2019-06-19T19:32:43.007Z,100.00
2019-06-19T19:35:13.494Z,100.00
2019-06-19T19:37:42.168Z,100.00
2019-06-19T19:40:25.468Z,100.00
2019-06-19T19:42:43.288Z,100.00
2019-06-19T19:45:12.322Z,100.00
2019-06-19T19:47:41.113Z,100.00
2019-06-19T19:50:09.999Z,100.00
2019-06-19T19:52:38.914Z,100.00
2019-06-19T19:55:10.013Z,100.00
2019-06-19T19:57:38.774Z,100.00
2019-06-19T20:00:08.793Z,100.00
2019-06-19T20:02:37.523Z,100.00
2019-06-19T20:05:07.456Z,100.00
2019-06-19T20:07:37.157Z,100.00
2019-06-19T20:10:09.330Z,100.00
2019-06-19T20:12:38.113Z,100.00
2019-06-19T20:15:09.282Z,100.00
2019-06-19T20:17:39.352Z,100.00
2019-06-19T20:20:11.276Z,100.00
2019-06-19T20:22:40.030Z,100.00
2019-06-19T20:25:09.932Z,100.00
2019-06-19T20:27:38.634Z,100.00
2019-06-19T20:30:09.869Z,100.00
2019-06-19T20:32:46.743Z,100.00
2019-06-19T20:35:13.055Z,100.00
2019-06-19T20:37:40.443Z,100.00
2019-06-19T20:40:09.228Z,100.00
2019-06-19T20:42:38.041Z,100.00
2019-06-19T20:45:07.792Z,100.00
2019-06-19T20:47:36.512Z,100.00
2019-06-19T20:50:08.682Z,100.00
2019-06-19T20:52:51.881Z,100.00
2019-06-19T20:55:08.044Z,100.00
2019-06-19T20:57:36.992Z,100.00
2019-06-19T21:00:11.118Z,100.00
2019-06-19T21:02:39.894Z,100.00
2019-06-19T21:05:10.130Z,100.00
2019-06-19T21:07:38.922Z,100.00
2019-06-19T21:10:08.024Z,100.00
2019-06-19T21:12:37.212Z,100.00
2019-06-19T21:15:09.820Z,100.00
2019-06-19T21:17:38.561Z,100.00
2019-06-19T21:20:11.054Z,100.00
2019-06-19T21:22:39.732Z,100.00
2019-06-19T21:25:09.321Z,100.00
2019-06-19T21:27:38.343Z,100.00
2019-06-19T21:30:09.068Z,100.00
2019-06-19T21:32:38.071Z,100.00
2019-06-19T21:35:10.636Z,100.00
2019-06-19T21:37:39.327Z,100.00
2019-06-19T21:40:08.725Z,100.00
2019-06-19T21:42:38.029Z,100.00
2019-06-19T21:45:07.863Z,100.00
2019-06-19T21:47:36.940Z,100.00
2019-06-19T21:50:07.162Z,100.00
2019-06-19T21:52:35.959Z,100.00
2019-06-19T21:55:07.404Z,100.00
2019-06-19T21:57:36.215Z,100.00
2019-06-19T22:00:11.437Z,100.00
2019-06-19T22:02:40.115Z,100.00
2019-06-19T22:05:08.930Z,100.00
2019-06-19T22:07:37.586Z,100.00
2019-06-19T22:10:07.570Z,100.00
2019-06-19T22:12:36.295Z,100.00
2019-06-19T22:15:06.413Z,100.00
2019-06-19T22:17:35.104Z,100.00
2019-06-19T22:20:04.809Z,100.00
2019-06-19T22:22:33.507Z,100.00
2019-06-19T22:25:02.297Z,100.00
2019-06-19T22:27:31.082Z,100.00
2019-06-19T22:29:59.786Z,100.00
2019-06-19T22:32:28.553Z,100.00
2019-06-19T22:34:57.337Z,100.00
2019-06-19T22:37:26.025Z,100.00
2019-06-19T22:39:54.829Z,100.00
2019-06-19T22:42:23.603Z,100.00
2019-06-19T22:44:52.308Z,100.00
2019-06-19T22:47:21.078Z,100.00
2019-06-19T22:49:49.766Z,100.00
2019-06-19T22:52:18.448Z,100.00
2019-06-19T22:54:47.143Z,100.00
2019-06-19T22:57:15.790Z,100.00
2019-06-19T22:59:44.511Z,100.00
2019-06-19T23:02:17.509Z,100.00
2019-06-19T23:04:46.286Z,100.00
2019-06-19T23:07:14.974Z,100.00
2019-06-19T23:09:43.786Z,100.00
2019-06-19T23:12:26.798Z,100.00
2019-06-19T23:14:42.888Z,100.00
2019-06-19T23:17:11.564Z,100.00
2019-06-19T23:19:40.352Z,100.00
2019-06-19T23:22:09.036Z,100.00
2019-06-19T23:24:37.726Z,100.00
2019-06-19T23:27:06.513Z,100.00
2019-06-19T23:29:35.303Z,100.00
2019-06-19T23:32:04.070Z,100.00
2019-06-19T23:34:32.884Z,100.00
2019-06-19T23:37:01.567Z,100.00
2019-06-19T23:39:30.352Z,100.00
2019-06-19T23:41:59.042Z,100.00
2019-06-19T23:44:27.750Z,100.00
2019-06-19T23:46:56.533Z,100.00
2019-06-19T23:49:25.310Z,100.00
2019-06-19T23:51:54.000Z,100.00
2019-06-19T23:54:22.782Z,100.00
2019-06-19T23:56:51.387Z,100.00
2019-06-19T23:59:20.168Z,100.00
